createdAt,value
2018-01-14T00:12:35.769Z,3.7
2018-01-14T00:29:22.346Z,3.7
2018-01-14T00:46:08.746Z,3.7
2018-01-14T01:02:55.161Z,3.7
2018-01-14T01:19:41.603Z,3.7
2018-01-14T01:36:28.031Z,3.7
2018-01-14T01:53:14.372Z,3.7
2018-01-14T02:10:00.871Z,3.7
2018-01-14T02:26:46.910Z,3.7
2018-01-14T02:43:33.082Z,3.6
2018-01-14T03:00:19.128Z,3.6
2018-01-14T03:17:05.226Z,3.6
2018-01-14T03:33:51.253Z,3.6
2018-01-14T03:50:37.299Z,3.6
2018-01-14T04:07:23.172Z,3.6
2018-01-14T04:24:09.098Z,3.6
2018-01-14T04:40:54.986Z,3.6
2018-01-14T04:57:40.750Z,3.6
2018-01-14T05:14:26.564Z,3.6
2018-01-14T05:31:12.277Z,3.6
2018-01-14T05:47:58.099Z,3.6
2018-01-14T06:04:43.795Z,3.6
2018-01-14T06:21:29.579Z,3.6
2018-01-14T06:38:15.350Z,3.6
2018-01-14T06:55:01.135Z,3.6
2018-01-14T07:11:47.034Z,3.6
2018-01-14T07:28:33.044Z,3.6
2018-01-14T07:45:18.871Z,3.6
2018-01-14T08:02:04.824Z,3.6
2018-01-14T08:18:50.959Z,3.6
2018-01-14T08:35:37.073Z,3.6
2018-01-14T08:52:23.062Z,3.6
2018-01-14T09:09:09.272Z,3.6
2018-01-14T09:25:55.194Z,3.7
2018-01-14T09:42:41.259Z,3.7
2018-01-14T09:59:27.464Z,3.8
2018-01-14T10:16:13.957Z,3.8
2018-01-14T10:33:00.582Z,3.8
2018-01-14T10:49:47.599Z,3.8
2018-01-14T11:06:33.918Z,3.9
2018-01-14T11:23:20.273Z,4.0
2018-01-14T11:40:06.806Z,4.1
2018-01-14T11:56:53.455Z,4.2
2018-01-14T12:13:40.360Z,4.3
2018-01-14T12:30:27.696Z,4.4
2018-01-14T12:47:14.788Z,4.5
2018-01-14T13:04:01.940Z,4.5
2018-01-14T13:20:49.075Z,4.5
2018-01-14T13:37:36.365Z,4.5
2018-01-14T13:54:23.574Z,4.5
2018-01-14T14:11:10.775Z,4.5
2018-01-14T14:27:58.379Z,4.5
2018-01-14T14:44:46.153Z,4.5
2018-01-14T15:01:33.604Z,4.5
2018-01-14T15:18:21.243Z,4.4
2018-01-14T15:35:08.771Z,4.4
2018-01-14T15:51:56.086Z,4.4
2018-01-14T16:08:43.469Z,4.4
2018-01-14T16:25:30.934Z,4.3
2018-01-14T16:42:18.489Z,4.3
2018-01-14T16:59:06.016Z,4.3
2018-01-14T17:15:53.583Z,4.3
2018-01-14T17:32:41.109Z,4.3
2018-01-14T17:49:28.367Z,4.2
2018-01-14T18:06:15.758Z,4.2
2018-01-14T18:23:01.930Z,4.2
2018-01-14T18:39:48.816Z,4.2
2018-01-14T18:56:35.374Z,4.2
2018-01-14T19:13:22.086Z,4.2
2018-01-14T19:30:08.764Z,4.2
2018-01-14T19:46:55.561Z,4.2
2018-01-14T20:03:42.878Z,4.2
2018-01-14T20:20:29.041Z,4.2
2018-01-14T20:37:17.066Z,4.1
2018-01-14T20:54:02.918Z,4.1
2018-01-14T21:10:49.587Z,4.1
2018-01-14T21:27:36.611Z,4.1
2018-01-14T21:44:23.138Z,4.1
2018-01-14T22:01:09.997Z,4.1
2018-01-14T22:17:57.142Z,4.1
2018-01-14T22:34:43.935Z,4.1
2018-01-14T22:51:31.035Z,4.1
2018-01-14T23:08:18.119Z,4.1
2018-01-14T23:25:04.993Z,4.0
2018-01-14T23:41:51.755Z,4.0
2018-01-14T23:58:38.868Z,4.0
